sensor_id;sensor_type;location;lat;lon;timestamp;temperature;humidity
1301;DHT22;59099;48.806;9.160;2022-07-23T00:00:00;25.80;82.90
1301;DHT22;59099;48.806;9.160;2022-07-23T00:02:26;25.70;83.20
1301;DHT22;59099;48.806;9.160;2022-07-23T00:04:52;25.70;83.50
1301;DHT22;59099;48.806;9.160;2022-07-23T00:07:17;25.70;83.40
1301;DHT22;59099;48.806;9.160;2022-07-23T00:09:43;25.70;83.00
1301;DHT22;59099;48.806;9.160;2022-07-23T00:12:09;25.60;83.50
1301;DHT22;59099;48.806;9.160;2022-07-23T00:14:35;25.60;83.70
1301;DHT22;59099;48.806;9.160;2022-07-23T00:17:00;25.50;83.60
1301;DHT22;59099;48.806;9.160;2022-07-23T00:19:26;25.50;84.00
1301;DHT22;59099;48.806;9.160;2022-07-23T00:21:52;25.40;84.40
1301;DHT22;59099;48.806;9.160;2022-07-23T00:24:18;25.40;84.90
1301;DHT22;59099;48.806;9.160;2022-07-23T00:26:44;25.30;85.40
1301;DHT22;59099;48.806;9.160;2022-07-23T00:29:10;25.20;85.90
1301;DHT22;59099;48.806;9.160;2022-07-23T00:31:35;25.20;86.10
1301;DHT22;59099;48.806;9.160;2022-07-23T00:34:02;25.20;87.60
1301;DHT22;59099;48.806;9.160;2022-07-23T00:36:28;25.10;87.00
1301;DHT22;59099;48.806;9.160;2022-07-23T00:38:54;25.00;87.00
1301;DHT22;59099;48.806;9.160;2022-07-23T00:41:20;25.10;87.00
1301;DHT22;59099;48.806;9.160;2022-07-23T00:43:46;25.00;87.70
1301;DHT22;59099;48.806;9.160;2022-07-23T00:46:12;24.80;89.70
1301;DHT22;59099;48.806;9.160;2022-07-23T00:48:38;24.50;90.60
1301;DHT22;59099;48.806;9.160;2022-07-23T00:51:04;24.20;91.70
1301;DHT22;59099;48.806;9.160;2022-07-23T00:53:30;24.10;92.00
1301;DHT22;59099;48.806;9.160;2022-07-23T00:55:58;24.10;91.70
1301;DHT22;59099;48.806;9.160;2022-07-23T00:58:24;24.20;91.70
1301;DHT22;59099;48.806;9.160;2022-07-23T01:00:50;24.20;92.10
1301;DHT22;59099;48.806;9.160;2022-07-23T01:03:16;24.20;91.70
1301;DHT22;59099;48.806;9.160;2022-07-23T01:05:45;24.20;91.80
1301;DHT22;59099;48.806;9.160;2022-07-23T01:08:11;24.20;92.20
1301;DHT22;59099;48.806;9.160;2022-07-23T01:10:37;24.10;92.30
1301;DHT22;59099;48.806;9.160;2022-07-23T01:13:06;24.00;92.40
1301;DHT22;59099;48.806;9.160;2022-07-23T01:15:34;23.90;92.60
1301;DHT22;59099;48.806;9.160;2022-07-23T01:18:01;23.90;93.20
1301;DHT22;59099;48.806;9.160;2022-07-23T01:20:27;23.90;93.20
1301;DHT22;59099;48.806;9.160;2022-07-23T01:22:54;23.90;93.10
1301;DHT22;59099;48.806;9.160;2022-07-23T01:25:21;23.90;93.10
1301;DHT22;59099;48.806;9.160;2022-07-23T01:27:55;23.80;93.30
1301;DHT22;59099;48.806;9.160;2022-07-23T01:30:22;23.80;93.60
1301;DHT22;59099;48.806;9.160;2022-07-23T01:32:48;23.80;93.60
1301;DHT22;59099;48.806;9.160;2022-07-23T01:35:14;23.80;93.70
1301;DHT22;59099;48.806;9.160;2022-07-23T01:37:40;23.80;93.70
1301;DHT22;59099;48.806;9.160;2022-07-23T01:40:07;23.70;93.80
1301;DHT22;59099;48.806;9.160;2022-07-23T01:42:33;23.70;94.00
1301;DHT22;59099;48.806;9.160;2022-07-23T01:45:04;23.70;93.90
1301;DHT22;59099;48.806;9.160;2022-07-23T01:47:30;23.70;94.10
1301;DHT22;59099;48.806;9.160;2022-07-23T01:49:56;23.70;94.40
1301;DHT22;59099;48.806;9.160;2022-07-23T01:52:40;23.70;94.00
1301;DHT22;59099;48.806;9.160;2022-07-23T01:55:08;23.70;94.20
1301;DHT22;59099;48.806;9.160;2022-07-23T01:57:35;23.60;94.30
1301;DHT22;59099;48.806;9.160;2022-07-23T02:00:01;23.60;94.50
1301;DHT22;59099;48.806;9.160;2022-07-23T02:02:27;23.50;94.50
1301;DHT22;59099;48.806;9.160;2022-07-23T02:04:53;23.50;94.80
1301;DHT22;59099;48.806;9.160;2022-07-23T02:07:24;23.60;94.80
1301;DHT22;59099;48.806;9.160;2022-07-23T02:09:51;23.50;95.00
1301;DHT22;59099;48.806;9.160;2022-07-23T02:12:16;23.40;95.30
1301;DHT22;59099;48.806;9.160;2022-07-23T02:14:44;23.30;95.30
1301;DHT22;59099;48.806;9.160;2022-07-23T02:17:10;23.30;95.40
1301;DHT22;59099;48.806;9.160;2022-07-23T02:19:35;23.20;95.50
1301;DHT22;59099;48.806;9.160;2022-07-23T02:22:01;23.20;95.90
1301;DHT22;59099;48.806;9.160;2022-07-23T02:24:27;23.20;96.00
1301;DHT22;59099;48.806;9.160;2022-07-23T02:26:53;23.10;96.20
1301;DHT22;59099;48.806;9.160;2022-07-23T02:29:18;23.10;96.40
1301;DHT22;59099;48.806;9.160;2022-07-23T02:31:44;23.10;96.60
1301;DHT22;59099;48.806;9.160;2022-07-23T02:34:11;23.00;96.50
1301;DHT22;59099;48.806;9.160;2022-07-23T02:36:38;23.00;96.80
1301;DHT22;59099;48.806;9.160;2022-07-23T02:39:05;23.00;96.80
1301;DHT22;59099;48.806;9.160;2022-07-23T02:41:33;23.00;96.60
1301;DHT22;59099;48.806;9.160;2022-07-23T02:43:59;23.00;97.20
1301;DHT22;59099;48.806;9.160;2022-07-23T02:46:25;22.90;97.80
1301;DHT22;59099;48.806;9.160;2022-07-23T02:48:52;22.80;98.30
1301;DHT22;59099;48.806;9.160;2022-07-23T02:51:19;22.70;98.90
1301;DHT22;59099;48.806;9.160;2022-07-23T02:53:53;22.60;99.40
1301;DHT22;59099;48.806;9.160;2022-07-23T02:56:20;22.50;99.00
1301;DHT22;59099;48.806;9.160;2022-07-23T02:58:45;22.50;99.10
1301;DHT22;59099;48.806;9.160;2022-07-23T03:01:13;22.60;99.00
1301;DHT22;59099;48.806;9.160;2022-07-23T03:03:39;22.60;99.10
1301;DHT22;59099;48.806;9.160;2022-07-23T03:06:05;22.60;99.30
1301;DHT22;59099;48.806;9.160;2022-07-23T03:08:31;22.60;99.50
1301;DHT22;59099;48.806;9.160;2022-07-23T03:10:57;22.50;99.70
1301;DHT22;59099;48.806;9.160;2022-07-23T03:13:23;22.50;99.90
1301;DHT22;59099;48.806;9.160;2022-07-23T03:15:49;22.50;99.90
1301;DHT22;59099;48.806;9.160;2022-07-23T03:18:14;22.50;99.90
1301;DHT22;59099;48.806;9.160;2022-07-23T03:20:43;22.50;99.90
1301;DHT22;59099;48.806;9.160;2022-07-23T03:23:09;22.50;99.90
1301;DHT22;59099;48.806;9.160;2022-07-23T03:25:36;22.50;99.90
1301;DHT22;59099;48.806;9.160;2022-07-23T03:28:02;22.50;99.90
1301;DHT22;59099;48.806;9.160;2022-07-23T03:30:28;22.40;99.90
1301;DHT22;59099;48.806;9.160;2022-07-23T03:32:57;22.40;99.90
1301;DHT22;59099;48.806;9.160;2022-07-23T03:35:23;22.50;99.90
1301;DHT22;59099;48.806;9.160;2022-07-23T03:38:03;22.50;99.90
1301;DHT22;59099;48.806;9.160;2022-07-23T03:40:32;22.50;99.90
1301;DHT22;59099;48.806;9.160;2022-07-23T03:42:57;22.50;99.90
1301;DHT22;59099;48.806;9.160;2022-07-23T03:45:23;22.40;99.90
1301;DHT22;59099;48.806;9.160;2022-07-23T03:47:49;22.40;99.90
1301;DHT22;59099;48.806;9.160;2022-07-23T03:50:15;22.40;99.90
1301;DHT22;59099;48.806;9.160;2022-07-23T03:52:41;22.30;99.90
1301;DHT22;59099;48.806;9.160;2022-07-23T03:55:07;22.20;99.90
1301;DHT22;59099;48.806;9.160;2022-07-23T03:57:33;22.20;99.90
1301;DHT22;59099;48.806;9.160;2022-07-23T03:59:59;22.10;99.90
1301;DHT22;59099;48.806;9.160;2022-07-23T04:02:25;22.10;99.90
1301;DHT22;59099;48.806;9.160;2022-07-23T04:04:51;22.20;99.90
1301;DHT22;59099;48.806;9.160;2022-07-23T04:07:17;22.20;99.90
1301;DHT22;59099;48.806;9.160;2022-07-23T04:09:44;22.10;99.90
1301;DHT22;59099;48.806;9.160;2022-07-23T04:12:09;22.10;99.90
1301;DHT22;59099;48.806;9.160;2022-07-23T04:14:35;22.20;99.90
1301;DHT22;59099;48.806;9.160;2022-07-23T04:17:02;22.30;99.90
1301;DHT22;59099;48.806;9.160;2022-07-23T04:19:27;22.30;99.90
1301;DHT22;59099;48.806;9.160;2022-07-23T04:22:01;22.20;99.90
1301;DHT22;59099;48.806;9.160;2022-07-23T04:24:28;22.10;99.90
1301;DHT22;59099;48.806;9.160;2022-07-23T04:26:54;22.10;99.90
1301;DHT22;59099;48.806;9.160;2022-07-23T04:29:20;22.10;99.90
1301;DHT22;59099;48.806;9.160;2022-07-23T04:31:46;22.00;99.90
1301;DHT22;59099;48.806;9.160;2022-07-23T04:34:11;22.00;99.90
1301;DHT22;59099;48.806;9.160;2022-07-23T04:36:37;22.00;99.90
1301;DHT22;59099;48.806;9.160;2022-07-23T04:39:03;22.00;99.90
1301;DHT22;59099;48.806;9.160;2022-07-23T04:41:30;22.10;99.90
1301;DHT22;59099;48.806;9.160;2022-07-23T04:43:58;22.30;99.90
1301;DHT22;59099;48.806;9.160;2022-07-23T04:46:29;22.30;99.90
1301;DHT22;59099;48.806;9.160;2022-07-23T04:48:56;22.30;99.90
1301;DHT22;59099;48.806;9.160;2022-07-23T04:51:21;22.30;99.90
1301;DHT22;59099;48.806;9.160;2022-07-23T04:53:48;22.30;99.90
1301;DHT22;59099;48.806;9.160;2022-07-23T04:56:13;22.30;99.90
1301;DHT22;59099;48.806;9.160;2022-07-23T04:58:39;22.40;99.90
1301;DHT22;59099;48.806;9.160;2022-07-23T05:01:05;22.40;99.90
1301;DHT22;59099;48.806;9.160;2022-07-23T05:03:33;22.40;99.90
1301;DHT22;59099;48.806;9.160;2022-07-23T05:05:59;22.30;99.90
1301;DHT22;59099;48.806;9.160;2022-07-23T05:08:26;22.40;99.90
1301;DHT22;59099;48.806;9.160;2022-07-23T05:10:54;22.40;99.90
1301;DHT22;59099;48.806;9.160;2022-07-23T05:13:21;22.40;99.90
1301;DHT22;59099;48.806;9.160;2022-07-23T05:15:50;22.50;99.90
1301;DHT22;59099;48.806;9.160;2022-07-23T05:18:15;22.60;99.90
1301;DHT22;59099;48.806;9.160;2022-07-23T05:20:41;22.70;99.90
1301;DHT22;59099;48.806;9.160;2022-07-23T05:23:08;22.70;99.90
1301;DHT22;59099;48.806;9.160;2022-07-23T05:25:34;22.70;99.90
1301;DHT22;59099;48.806;9.160;2022-07-23T05:28:00;22.90;99.90
1301;DHT22;59099;48.806;9.160;2022-07-23T05:30:26;23.00;99.90
1301;DHT22;59099;48.806;9.160;2022-07-23T05:32:57;23.00;99.90
1301;DHT22;59099;48.806;9.160;2022-07-23T05:35:24;23.20;99.90
1301;DHT22;59099;48.806;9.160;2022-07-23T05:38:12;23.30;99.90
1301;DHT22;59099;48.806;9.160;2022-07-23T05:40:38;23.50;99.90
1301;DHT22;59099;48.806;9.160;2022-07-23T05:43:04;23.60;99.90
1301;DHT22;59099;48.806;9.160;2022-07-23T05:45:32;23.60;99.90
1301;DHT22;59099;48.806;9.160;2022-07-23T05:47:58;23.50;99.90
1301;DHT22;59099;48.806;9.160;2022-07-23T05:50:30;23.50;99.90
1301;DHT22;59099;48.806;9.160;2022-07-23T05:53:01;23.70;99.90
1301;DHT22;59099;48.806;9.160;2022-07-23T05:55:26;23.80;99.90
1301;DHT22;59099;48.806;9.160;2022-07-23T05:57:56;23.70;99.90
1301;DHT22;59099;48.806;9.160;2022-07-23T06:00:21;23.70;99.90
1301;DHT22;59099;48.806;9.160;2022-07-23T06:02:48;23.70;99.90
1301;DHT22;59099;48.806;9.160;2022-07-23T06:05:16;23.70;99.90
1301;DHT22;59099;48.806;9.160;2022-07-23T06:07:44;23.70;99.90
1301;DHT22;59099;48.806;9.160;2022-07-23T06:10:10;23.70;99.90
1301;DHT22;59099;48.806;9.160;2022-07-23T06:12:36;23.80;99.90
1301;DHT22;59099;48.806;9.160;2022-07-23T06:15:03;23.90;99.90
1301;DHT22;59099;48.806;9.160;2022-07-23T06:17:33;23.90;99.90
1301;DHT22;59099;48.806;9.160;2022-07-23T06:20:09;24.00;99.90
1301;DHT22;59099;48.806;9.160;2022-07-23T06:22:38;24.00;99.90
1301;DHT22;59099;48.806;9.160;2022-07-23T06:25:04;24.10;99.90
1301;DHT22;59099;48.806;9.160;2022-07-23T06:27:33;24.10;99.90
1301;DHT22;59099;48.806;9.160;2022-07-23T06:30:01;24.10;99.90
1301;DHT22;59099;48.806;9.160;2022-07-23T06:32:27;24.10;99.90
1301;DHT22;59099;48.806;9.160;2022-07-23T06:34:53;24.20;99.90
1301;DHT22;59099;48.806;9.160;2022-07-23T06:37:20;24.30;99.90
1301;DHT22;59099;48.806;9.160;2022-07-23T06:39:49;24.50;99.90
1301;DHT22;59099;48.806;9.160;2022-07-23T06:42:15;24.70;99.90
1301;DHT22;59099;48.806;9.160;2022-07-23T06:44:45;24.80;99.90
1301;DHT22;59099;48.806;9.160;2022-07-23T06:47:13;24.90;99.70
1301;DHT22;59099;48.806;9.160;2022-07-23T06:49:40;25.20;99.60
1301;DHT22;59099;48.806;9.160;2022-07-23T06:52:07;25.40;98.50
1301;DHT22;59099;48.806;9.160;2022-07-23T06:54:33;25.40;96.70
1301;DHT22;59099;48.806;9.160;2022-07-23T06:56:59;25.40;96.70
1301;DHT22;59099;48.806;9.160;2022-07-23T06:59:26;25.20;97.80
1301;DHT22;59099;48.806;9.160;2022-07-23T07:01:52;25.10;98.10
1301;DHT22;59099;48.806;9.160;2022-07-23T07:04:18;24.90;97.90
1301;DHT22;59099;48.806;9.160;2022-07-23T07:06:44;24.70;97.30
1301;DHT22;59099;48.806;9.160;2022-07-23T07:09:14;24.50;97.50
1301;DHT22;59099;48.806;9.160;2022-07-23T07:11:39;24.40;97.90
1301;DHT22;59099;48.806;9.160;2022-07-23T07:14:05;24.40;98.30
1301;DHT22;59099;48.806;9.160;2022-07-23T07:16:41;24.30;98.50
1301;DHT22;59099;48.806;9.160;2022-07-23T07:19:06;23.90;98.70
1301;DHT22;59099;48.806;9.160;2022-07-23T07:21:32;23.80;99.50
1301;DHT22;59099;48.806;9.160;2022-07-23T07:26:45;23.80;99.90
1301;DHT22;59099;48.806;9.160;2022-07-23T07:29:52;24.00;99.90
1301;DHT22;59099;48.806;9.160;2022-07-23T07:32:18;25.10;99.90
1301;DHT22;59099;48.806;9.160;2022-07-23T07:34:44;25.20;99.80
1301;DHT22;59099;48.806;9.160;2022-07-23T07:37:10;25.00;99.90
1301;DHT22;59099;48.806;9.160;2022-07-23T07:39:35;24.30;99.90
1301;DHT22;59099;48.806;9.160;2022-07-23T07:42:01;23.80;99.90
1301;DHT22;59099;48.806;9.160;2022-07-23T07:44:27;23.70;99.90
1301;DHT22;59099;48.806;9.160;2022-07-23T07:46:53;23.60;99.90
1301;DHT22;59099;48.806;9.160;2022-07-23T07:49:22;23.50;99.90
1301;DHT22;59099;48.806;9.160;2022-07-23T07:51:49;23.50;99.90
1301;DHT22;59099;48.806;9.160;2022-07-23T07:54:15;23.70;99.90
1301;DHT22;59099;48.806;9.160;2022-07-23T07:56:41;23.80;99.90
1301;DHT22;59099;48.806;9.160;2022-07-23T07:59:08;23.70;99.90
1301;DHT22;59099;48.806;9.160;2022-07-23T08:01:34;23.60;99.90
1301;DHT22;59099;48.806;9.160;2022-07-23T08:04:01;23.70;99.90
1301;DHT22;59099;48.806;9.160;2022-07-23T08:06:34;23.70;99.90
1301;DHT22;59099;48.806;9.160;2022-07-23T08:09:00;23.60;99.90
1301;DHT22;59099;48.806;9.160;2022-07-23T08:11:26;23.70;99.90
1301;DHT22;59099;48.806;9.160;2022-07-23T08:13:52;23.80;99.90
1301;DHT22;59099;48.806;9.160;2022-07-23T08:16:18;23.90;99.90
1301;DHT22;59099;48.806;9.160;2022-07-23T08:18:44;23.80;99.90
1301;DHT22;59099;48.806;9.160;2022-07-23T08:21:09;24.00;99.90
1301;DHT22;59099;48.806;9.160;2022-07-23T08:23:35;23.60;99.90
1301;DHT22;59099;48.806;9.160;2022-07-23T08:26:01;23.40;99.90
1301;DHT22;59099;48.806;9.160;2022-07-23T08:28:27;23.50;99.90
1301;DHT22;59099;48.806;9.160;2022-07-23T08:30:53;23.70;99.90
1301;DHT22;59099;48.806;9.160;2022-07-23T08:33:19;23.90;99.90
1301;DHT22;59099;48.806;9.160;2022-07-23T08:35:49;23.90;99.90
1301;DHT22;59099;48.806;9.160;2022-07-23T08:38:17;23.80;99.90
1301;DHT22;59099;48.806;9.160;2022-07-23T08:40:48;24.00;99.90
1301;DHT22;59099;48.806;9.160;2022-07-23T08:43:17;24.20;99.90
1301;DHT22;59099;48.806;9.160;2022-07-23T08:45:46;24.40;99.90
1301;DHT22;59099;48.806;9.160;2022-07-23T08:48:20;24.70;99.90
1301;DHT22;59099;48.806;9.160;2022-07-23T08:50:49;24.90;99.90
1301;DHT22;59099;48.806;9.160;2022-07-23T08:53:17;25.20;99.90
1301;DHT22;59099;48.806;9.160;2022-07-23T08:55:48;25.30;99.90
1301;DHT22;59099;48.806;9.160;2022-07-23T08:58:15;25.40;99.40
1301;DHT22;59099;48.806;9.160;2022-07-23T09:00:42;25.40;98.50
1301;DHT22;59099;48.806;9.160;2022-07-23T09:03:36;25.40;98.50
1301;DHT22;59099;48.806;9.160;2022-07-23T09:06:01;25.60;98.40
1301;DHT22;59099;48.806;9.160;2022-07-23T09:08:36;25.60;95.90
1301;DHT22;59099;48.806;9.160;2022-07-23T09:11:04;26.00;95.10
1301;DHT22;59099;48.806;9.160;2022-07-23T09:18:35;26.70;93.80
1301;DHT22;59099;48.806;9.160;2022-07-23T09:21:19;27.00;94.30
1301;DHT22;59099;48.806;9.160;2022-07-23T09:31:54;27.60;91.90
1301;DHT22;59099;48.806;9.160;2022-07-23T09:36:49;28.40;90.20
1301;DHT22;59099;48.806;9.160;2022-07-23T09:39:22;28.70;88.30
1301;DHT22;59099;48.806;9.160;2022-07-23T09:41:49;29.20;88.20
1301;DHT22;59099;48.806;9.160;2022-07-23T09:44:24;29.40;85.80
1301;DHT22;59099;48.806;9.160;2022-07-23T09:46:51;29.70;83.10
1301;DHT22;59099;48.806;9.160;2022-07-23T09:49:23;29.80;81.80
1301;DHT22;59099;48.806;9.160;2022-07-23T09:54:37;29.40;85.50
1301;DHT22;59099;48.806;9.160;2022-07-23T09:57:09;29.50;82.80
1301;DHT22;59099;48.806;9.160;2022-07-23T09:59:39;29.50;82.50
1301;DHT22;59099;48.806;9.160;2022-07-23T10:02:07;29.50;82.30
1301;DHT22;59099;48.806;9.160;2022-07-23T10:04:45;29.60;76.10
1301;DHT22;59099;48.806;9.160;2022-07-23T10:07:32;29.40;76.50
1301;DHT22;59099;48.806;9.160;2022-07-23T10:10:32;29.40;77.00
1301;DHT22;59099;48.806;9.160;2022-07-23T10:13:17;29.60;80.20
1301;DHT22;59099;48.806;9.160;2022-07-23T10:15:46;29.80;76.10
1301;DHT22;59099;48.806;9.160;2022-07-23T10:18:12;30.00;77.70
1301;DHT22;59099;48.806;9.160;2022-07-23T10:20:40;30.00;77.40
1301;DHT22;59099;48.806;9.160;2022-07-23T10:23:28;30.00;73.80
1301;DHT22;59099;48.806;9.160;2022-07-23T10:26:17;29.90;74.80
1301;DHT22;59099;48.806;9.160;2022-07-23T10:31:58;30.50;75.80
1301;DHT22;59099;48.806;9.160;2022-07-23T10:34:51;30.40;72.50
1301;DHT22;59099;48.806;9.160;2022-07-23T10:37:26;29.90;72.90
1301;DHT22;59099;48.806;9.160;2022-07-23T10:40:16;30.20;72.00
1301;DHT22;59099;48.806;9.160;2022-07-23T10:42:49;30.40;71.90
1301;DHT22;59099;48.806;9.160;2022-07-23T10:45:36;30.20;72.50
1301;DHT22;59099;48.806;9.160;2022-07-23T10:59:15;35.10;57.60
1301;DHT22;59099;48.806;9.160;2022-07-23T11:01:41;35.40;58.10
1301;DHT22;59099;48.806;9.160;2022-07-23T11:04:07;36.10;56.50
1301;DHT22;59099;48.806;9.160;2022-07-23T11:09:28;36.30;55.10
1301;DHT22;59099;48.806;9.160;2022-07-23T11:15:10;35.90;55.10
1301;DHT22;59099;48.806;9.160;2022-07-23T11:22:48;33.40;59.70
1301;DHT22;59099;48.806;9.160;2022-07-23T11:27:54;32.50;61.50
1301;DHT22;59099;48.806;9.160;2022-07-23T11:33:37;31.40;62.80
1301;DHT22;59099;48.806;9.160;2022-07-23T11:35:43;31.60;67.40
1301;DHT22;59099;48.806;9.160;2022-07-23T11:38:18;32.00;64.80
1301;DHT22;59099;48.806;9.160;2022-07-23T11:40:46;32.40;61.00
1301;DHT22;59099;48.806;9.160;2022-07-23T11:43:13;32.30;62.50
1301;DHT22;59099;48.806;9.160;2022-07-23T11:45:45;32.20;63.60
1301;DHT22;59099;48.806;9.160;2022-07-23T11:48:24;31.90;63.80
1301;DHT22;59099;48.806;9.160;2022-07-23T11:50:52;32.50;61.90
1301;DHT22;59099;48.806;9.160;2022-07-23T11:53:36;32.90;63.80
1301;DHT22;59099;48.806;9.160;2022-07-23T11:56:04;33.90;60.00
1301;DHT22;59099;48.806;9.160;2022-07-23T11:58:30;35.10;58.50
1301;DHT22;59099;48.806;9.160;2022-07-23T12:00:57;36.30;56.40
1301;DHT22;59099;48.806;9.160;2022-07-23T12:03:22;37.00;55.20
1301;DHT22;59099;48.806;9.160;2022-07-23T12:05:48;37.40;53.90
1301;DHT22;59099;48.806;9.160;2022-07-23T12:08:14;37.80;52.60
1301;DHT22;59099;48.806;9.160;2022-07-23T12:10:42;37.30;53.20
1301;DHT22;59099;48.806;9.160;2022-07-23T12:13:15;37.00;53.90
1301;DHT22;59099;48.806;9.160;2022-07-23T12:15:50;36.80;55.10
1301;DHT22;59099;48.806;9.160;2022-07-23T12:18:19;36.80;53.60
1301;DHT22;59099;48.806;9.160;2022-07-23T12:20:51;37.10;53.30
1301;DHT22;59099;48.806;9.160;2022-07-23T12:23:19;37.10;53.10
1301;DHT22;59099;48.806;9.160;2022-07-23T12:25:46;36.80;54.00
1301;DHT22;59099;48.806;9.160;2022-07-23T12:30:39;36.80;52.50
1301;DHT22;59099;48.806;9.160;2022-07-23T12:33:07;36.90;52.20
1301;DHT22;59099;48.806;9.160;2022-07-23T12:35:38;36.60;53.30
1301;DHT22;59099;48.806;9.160;2022-07-23T12:38:09;36.80;54.60
1301;DHT22;59099;48.806;9.160;2022-07-23T12:43:27;36.40;54.10
1301;DHT22;59099;48.806;9.160;2022-07-23T12:45:55;36.70;53.30
1301;DHT22;59099;48.806;9.160;2022-07-23T12:48:31;36.60;52.90
1301;DHT22;59099;48.806;9.160;2022-07-23T12:51:09;37.10;53.70
1301;DHT22;59099;48.806;9.160;2022-07-23T12:53:45;37.40;55.10
1301;DHT22;59099;48.806;9.160;2022-07-23T12:56:26;36.80;55.80
1301;DHT22;59099;48.806;9.160;2022-07-23T12:59:08;36.80;53.70
1301;DHT22;59099;48.806;9.160;2022-07-23T13:01:41;36.60;54.00
1301;DHT22;59099;48.806;9.160;2022-07-23T13:06:42;36.20;53.80
1301;DHT22;59099;48.806;9.160;2022-07-23T13:09:31;35.80;55.50
1301;DHT22;59099;48.806;9.160;2022-07-23T13:11:57;35.40;53.50
1301;DHT22;59099;48.806;9.160;2022-07-23T13:14:25;35.30;55.00
1301;DHT22;59099;48.806;9.160;2022-07-23T13:16:52;35.40;53.90
1301;DHT22;59099;48.806;9.160;2022-07-23T13:19:18;35.00;54.30
1301;DHT22;59099;48.806;9.160;2022-07-23T13:21:45;34.90;56.10
1301;DHT22;59099;48.806;9.160;2022-07-23T13:24:12;35.10;53.80
1301;DHT22;59099;48.806;9.160;2022-07-23T13:26:38;35.80;53.20
1301;DHT22;59099;48.806;9.160;2022-07-23T13:29:05;36.60;51.70
1301;DHT22;59099;48.806;9.160;2022-07-23T13:31:31;37.10;55.50
1301;DHT22;59099;48.806;9.160;2022-07-23T13:33:57;38.00;50.60
1301;DHT22;59099;48.806;9.160;2022-07-23T13:36:22;37.80;50.00
1301;DHT22;59099;48.806;9.160;2022-07-23T13:38:48;38.10;50.60
1301;DHT22;59099;48.806;9.160;2022-07-23T13:41:16;38.60;52.70
1301;DHT22;59099;48.806;9.160;2022-07-23T13:43:42;39.10;50.70
1301;DHT22;59099;48.806;9.160;2022-07-23T13:46:09;40.70;48.60
1301;DHT22;59099;48.806;9.160;2022-07-23T13:48:34;41.60;46.40
1301;DHT22;59099;48.806;9.160;2022-07-23T13:51:00;42.60;45.40
1301;DHT22;59099;48.806;9.160;2022-07-23T13:53:27;41.70;45.60
1301;DHT22;59099;48.806;9.160;2022-07-23T13:55:53;40.60;47.90
1301;DHT22;59099;48.806;9.160;2022-07-23T13:58:20;39.90;49.70
1301;DHT22;59099;48.806;9.160;2022-07-23T14:00:49;39.40;48.50
1301;DHT22;59099;48.806;9.160;2022-07-23T14:03:15;39.50;50.20
1301;DHT22;59099;48.806;9.160;2022-07-23T14:05:41;40.10;51.10
1301;DHT22;59099;48.806;9.160;2022-07-23T14:08:08;40.90;47.30
1301;DHT22;59099;48.806;9.160;2022-07-23T14:10:34;39.80;47.40
1301;DHT22;59099;48.806;9.160;2022-07-23T14:13:00;39.80;48.80
1301;DHT22;59099;48.806;9.160;2022-07-23T14:15:28;39.50;46.20
1301;DHT22;59099;48.806;9.160;2022-07-23T14:17:55;39.70;48.00
1301;DHT22;59099;48.806;9.160;2022-07-23T14:20:21;41.20;46.80
1301;DHT22;59099;48.806;9.160;2022-07-23T14:22:47;42.20;44.50
1301;DHT22;59099;48.806;9.160;2022-07-23T14:25:15;42.70;44.20
1301;DHT22;59099;48.806;9.160;2022-07-23T14:27:41;42.50;44.90
1301;DHT22;59099;48.806;9.160;2022-07-23T14:30:08;43.10;44.30
1301;DHT22;59099;48.806;9.160;2022-07-23T14:32:35;43.10;43.70
1301;DHT22;59099;48.806;9.160;2022-07-23T14:35:01;41.90;43.30
1301;DHT22;59099;48.806;9.160;2022-07-23T14:37:27;40.90;45.00
1301;DHT22;59099;48.806;9.160;2022-07-23T14:39:53;40.50;45.80
1301;DHT22;59099;48.806;9.160;2022-07-23T14:42:19;40.40;45.20
1301;DHT22;59099;48.806;9.160;2022-07-23T14:44:45;40.90;46.20
1301;DHT22;59099;48.806;9.160;2022-07-23T14:47:11;41.90;45.70
1301;DHT22;59099;48.806;9.160;2022-07-23T14:49:37;42.30;45.00
1301;DHT22;59099;48.806;9.160;2022-07-23T14:52:03;42.90;42.70
1301;DHT22;59099;48.806;9.160;2022-07-23T14:54:29;42.90;42.20
1301;DHT22;59099;48.806;9.160;2022-07-23T14:56:56;43.20;42.80
1301;DHT22;59099;48.806;9.160;2022-07-23T14:59:23;42.20;45.80
1301;DHT22;59099;48.806;9.160;2022-07-23T15:01:49;42.30;41.90
1301;DHT22;59099;48.806;9.160;2022-07-23T15:04:15;40.70;42.80
1301;DHT22;59099;48.806;9.160;2022-07-23T15:06:41;41.00;44.10
1301;DHT22;59099;48.806;9.160;2022-07-23T15:09:07;40.90;45.30
1301;DHT22;59099;48.806;9.160;2022-07-23T15:11:33;38.90;44.70
1301;DHT22;59099;48.806;9.160;2022-07-23T15:14:00;37.40;45.90
1301;DHT22;59099;48.806;9.160;2022-07-23T15:16:27;36.50;48.00
1301;DHT22;59099;48.806;9.160;2022-07-23T15:18:53;36.00;49.50
1301;DHT22;59099;48.806;9.160;2022-07-23T15:21:20;35.60;49.80
1301;DHT22;59099;48.806;9.160;2022-07-23T15:23:45;35.30;49.20
1301;DHT22;59099;48.806;9.160;2022-07-23T15:26:12;34.70;50.60
1301;DHT22;59099;48.806;9.160;2022-07-23T15:28:39;34.50;52.50
1301;DHT22;59099;48.806;9.160;2022-07-23T15:31:06;35.00;52.20
1301;DHT22;59099;48.806;9.160;2022-07-23T15:33:32;36.60;51.40
1301;DHT22;59099;48.806;9.160;2022-07-23T15:35:58;38.40;50.20
1301;DHT22;59099;48.806;9.160;2022-07-23T15:38:33;39.40;46.80
1301;DHT22;59099;48.806;9.160;2022-07-23T15:40:58;39.80;45.90
1301;DHT22;59099;48.806;9.160;2022-07-23T15:43:25;40.30;49.00
1301;DHT22;59099;48.806;9.160;2022-07-23T15:45:51;40.00;46.10
1301;DHT22;59099;48.806;9.160;2022-07-23T15:48:18;40.40;45.10
1301;DHT22;59099;48.806;9.160;2022-07-23T15:50:44;40.90;46.60
1301;DHT22;59099;48.806;9.160;2022-07-23T15:53:13;41.00;43.60
1301;DHT22;59099;48.806;9.160;2022-07-23T15:55:40;40.50;44.80
1301;DHT22;59099;48.806;9.160;2022-07-23T15:58:06;40.50;45.60
1301;DHT22;59099;48.806;9.160;2022-07-23T16:00:33;40.80;47.00
1301;DHT22;59099;48.806;9.160;2022-07-23T16:02:59;41.20;46.40
1301;DHT22;59099;48.806;9.160;2022-07-23T16:05:25;41.70;44.40
1301;DHT22;59099;48.806;9.160;2022-07-23T16:07:58;41.90;44.30
1301;DHT22;59099;48.806;9.160;2022-07-23T16:10:25;41.90;45.70
1301;DHT22;59099;48.806;9.160;2022-07-23T16:12:50;41.50;47.80
1301;DHT22;59099;48.806;9.160;2022-07-23T16:15:16;41.90;44.00
1301;DHT22;59099;48.806;9.160;2022-07-23T16:17:42;41.00;44.20
1301;DHT22;59099;48.806;9.160;2022-07-23T16:20:09;40.50;45.40
1301;DHT22;59099;48.806;9.160;2022-07-23T16:22:35;39.90;46.40
1301;DHT22;59099;48.806;9.160;2022-07-23T16:25:02;39.40;49.40
1301;DHT22;59099;48.806;9.160;2022-07-23T16:27:28;39.10;46.60
1301;DHT22;59099;48.806;9.160;2022-07-23T16:29:54;37.30;47.20
1301;DHT22;59099;48.806;9.160;2022-07-23T16:32:19;36.20;48.90
1301;DHT22;59099;48.806;9.160;2022-07-23T16:34:45;35.00;50.80
1301;DHT22;59099;48.806;9.160;2022-07-23T16:37:11;34.20;52.00
1301;DHT22;59099;48.806;9.160;2022-07-23T16:39:37;33.80;51.90
1301;DHT22;59099;48.806;9.160;2022-07-23T16:42:04;33.20;52.40
1301;DHT22;59099;48.806;9.160;2022-07-23T16:44:30;32.40;53.70
1301;DHT22;59099;48.806;9.160;2022-07-23T16:46:56;32.30;55.00
1301;DHT22;59099;48.806;9.160;2022-07-23T16:49:21;32.50;57.20